createdAt,value
2018-05-29T00:07:23.871Z,21.00
2018-05-29T00:12:28.478Z,20.90
2018-05-29T00:22:36.024Z,20.70
2018-05-29T00:27:40.263Z,20.70
2018-05-29T00:37:48.581Z,20.50
2018-05-29T00:42:52.439Z,20.50
2018-05-29T00:47:55.543Z,20.50
2018-05-29T00:52:58.626Z,20.40
2018-05-29T00:58:02.493Z,20.20
2018-05-29T01:13:14.494Z,19.80
2018-05-29T01:18:17.576Z,19.60
2018-05-29T01:23:21.425Z,19.50
2018-05-29T01:28:24.526Z,19.50
2018-05-29T01:33:27.622Z,19.50
2018-05-29T01:38:31.110Z,19.50
2018-05-29T01:43:34.602Z,19.50
2018-05-29T01:48:38.831Z,19.40
2018-05-29T01:53:41.922Z,19.20
2018-05-29T01:58:45.406Z,19.10
2018-05-29T02:03:49.264Z,19.00
2018-05-29T02:08:52.758Z,19.10
2018-05-29T02:13:56.612Z,19.10
2018-05-29T02:18:59.697Z,19.00
2018-05-29T02:24:03.552Z,18.80
2018-05-29T02:29:07.782Z,18.80
2018-05-29T02:34:12.049Z,18.80
2018-05-29T02:49:24.006Z,18.80
2018-05-29T02:54:27.119Z,18.90
2018-05-29T03:04:34.658Z,18.60
2018-05-29T03:19:46.639Z,18.70
2018-05-29T03:29:54.638Z,18.70
2018-05-29T03:34:57.726Z,18.60
2018-05-29T03:40:01.585Z,18.40
2018-05-29T03:45:05.076Z,18.50
2018-05-29T03:50:08.197Z,18.50
2018-05-29T03:55:11.682Z,18.50
2018-05-29T04:05:19.988Z,18.50
2018-05-29T04:10:24.589Z,18.50
2018-05-29T04:20:33.631Z,18.50
2018-05-29T04:25:37.870Z,18.60
2018-05-29T04:30:41.730Z,18.60
2018-05-29T04:35:44.834Z,18.70
2018-05-29T04:40:47.926Z,18.70
2018-05-29T04:50:55.474Z,18.90
2018-05-29T04:55:58.574Z,18.90
2018-05-29T05:01:02.067Z,19.10
2018-05-29T05:06:05.173Z,19.20
2018-05-29T05:11:08.262Z,19.30
2018-05-29T05:16:11.366Z,19.50
2018-05-29T05:26:19.665Z,19.80
2018-05-29T05:31:23.898Z,20.30
2018-05-29T05:36:28.131Z,20.80
2018-05-29T05:46:37.151Z,21.70
2018-05-29T05:51:42.203Z,22.00
2018-05-29T05:56:45.304Z,22.70
2018-05-29T06:06:53.627Z,24.10
2018-05-29T06:11:56.740Z,23.90
2018-05-29T06:22:05.411Z,25.30
2018-05-29T06:32:13.344Z,26.00
2018-05-29T06:37:16.441Z,26.20
2018-05-29T06:42:20.311Z,26.70
2018-05-29T06:52:29.760Z,27.80
2018-05-29T06:57:34.361Z,28.20
2018-05-29T07:02:38.599Z,28.00
2018-05-29T07:07:43.802Z,27.90
2018-05-29T07:12:47.667Z,27.80
2018-05-29T07:17:51.528Z,28.50
2018-05-29T07:22:55.395Z,28.30
2018-05-29T07:27:58.492Z,29.20
2018-05-29T07:38:06.429Z,29.60
2018-05-29T07:43:09.532Z,29.60
2018-05-29T07:48:13.755Z,29.60
2018-05-29T07:53:16.842Z,30.10
2018-05-29T08:03:25.526Z,31.30
2018-05-29T08:08:29.396Z,30.40
2018-05-29T08:13:32.895Z,30.70
2018-05-29T08:18:36.775Z,31.20
2018-05-29T08:23:40.614Z,30.80
2018-05-29T08:28:44.475Z,31.40
2018-05-29T08:33:47.569Z,31.90
2018-05-29T08:38:51.790Z,31.60
2018-05-29T08:43:55.655Z,31.60
2018-05-29T08:54:04.631Z,31.00
2018-05-29T08:59:08.525Z,31.00
2018-05-29T09:04:12.392Z,30.70
2018-05-29T09:09:15.886Z,30.40
2018-05-29T09:14:19.375Z,30.40
2018-05-29T09:19:22.871Z,30.30
2018-05-29T09:24:26.362Z,30.30
2018-05-29T09:34:33.905Z,31.50
2018-05-29T09:49:47.073Z,32.10
2018-05-29T09:54:50.977Z,31.70
2018-05-29T10:10:02.963Z,30.10
2018-05-29T10:15:06.821Z,30.60
2018-05-29T10:20:09.925Z,30.50
2018-05-29T10:25:14.159Z,30.30
2018-05-29T10:30:17.263Z,30.10
2018-05-29T10:35:21.123Z,30.30
2018-05-29T10:45:29.803Z,30.00
2018-05-29T10:50:34.029Z,30.00
2018-05-29T10:55:38.271Z,29.70
2018-05-29T11:00:41.799Z,29.80
2018-05-29T11:05:46.039Z,30.10
2018-05-29T11:10:49.186Z,30.20
2018-05-29T11:15:53.049Z,30.30
2018-05-29T11:31:06.182Z,29.30
2018-05-29T11:36:09.283Z,29.40
2018-05-29T11:41:12.434Z,29.50
2018-05-29T11:46:16.670Z,29.40
2018-05-29T11:51:20.166Z,29.50
2018-05-29T12:06:32.305Z,29.30
2018-05-29T12:11:35.401Z,29.40
2018-05-29T12:16:39.261Z,29.40
2018-05-29T12:21:43.499Z,29.60
2018-05-29T12:26:46.608Z,29.70
2018-05-29T12:31:49.711Z,29.60
2018-05-29T12:36:53.570Z,29.30
2018-05-29T12:41:57.452Z,29.30
2018-05-29T12:47:00.934Z,29.30
2018-05-29T12:52:05.557Z,29.60
2018-05-29T12:57:09.406Z,29.60
2018-05-29T13:02:12.498Z,29.60
2018-05-29T13:07:17.098Z,29.70
2018-05-29T13:12:20.197Z,29.70
2018-05-29T13:27:33.667Z,29.40
2018-05-29T13:32:37.564Z,29.30
2018-05-29T13:42:45.067Z,29.00
2018-05-29T13:47:48.932Z,28.90
2018-05-29T13:52:52.031Z,28.60
2018-05-29T13:57:55.514Z,28.50
2018-05-29T14:02:59.753Z,28.30
2018-05-29T14:08:02.860Z,27.80
2018-05-29T14:13:06.706Z,27.00
2018-05-29T14:18:10.569Z,26.20
2018-05-29T14:23:13.679Z,25.90
2018-05-29T14:48:36.019Z,25.40
2018-05-29T14:53:39.120Z,25.40
2018-05-29T15:03:47.042Z,25.40
2018-05-29T15:08:50.526Z,25.40
2018-05-29T15:18:58.081Z,25.40
2018-05-29T15:24:01.167Z,25.30
2018-05-29T15:29:04.659Z,25.30
2018-05-29T15:34:07.759Z,25.10
2018-05-29T15:39:11.617Z,24.80
2018-05-29T15:44:15.109Z,24.70
2018-05-29T15:49:19.362Z,24.60
2018-05-29T15:54:23.207Z,24.50
2018-05-29T15:59:26.299Z,24.30
2018-05-29T16:04:29.390Z,24.10
2018-05-29T16:09:33.980Z,24.00
2018-05-29T16:14:37.079Z,23.80
2018-05-29T16:19:40.180Z,23.80
2018-05-29T16:29:48.871Z,23.60
2018-05-29T16:34:51.960Z,23.50
2018-05-29T16:39:55.831Z,23.50
2018-05-29T16:45:00.066Z,23.40
2018-05-29T16:55:09.159Z,23.30
2018-05-29T17:00:13.388Z,23.20
2018-05-29T17:10:22.447Z,23.20
2018-05-29T17:15:25.686Z,23.20
2018-05-29T17:30:38.321Z,23.00
2018-05-29T17:40:45.849Z,22.80
2018-05-29T17:45:49.719Z,22.90
2018-05-29T17:50:52.821Z,22.90
2018-05-29T17:55:55.919Z,23.00
2018-05-29T18:00:59.015Z,23.00
2018-05-29T18:06:03.255Z,23.00
2018-05-29T18:16:10.783Z,22.90
2018-05-29T18:21:13.873Z,22.80
2018-05-29T18:26:17.356Z,22.70
2018-05-29T18:31:20.454Z,22.70
2018-05-29T18:41:28.046Z,22.20
2018-05-29T18:46:31.534Z,22.40
2018-05-29T18:51:35.031Z,22.30
2018-05-29T19:01:43.336Z,22.20
2018-05-29T19:06:47.934Z,21.90
2018-05-29T19:11:51.035Z,21.80
2018-05-29T19:16:54.597Z,21.70
2018-05-29T19:21:57.626Z,21.80
2018-05-29T19:27:01.483Z,21.70
2018-05-29T19:32:04.973Z,21.60
2018-05-29T19:37:09.195Z,21.60
2018-05-29T19:47:17.146Z,21.70
2018-05-29T19:52:21.375Z,21.70
2018-05-29T20:12:39.697Z,21.90
2018-05-29T20:17:43.930Z,21.90
2018-05-29T20:22:48.155Z,21.90
2018-05-29T20:27:51.242Z,21.90
2018-05-29T20:32:54.339Z,21.90
2018-05-29T20:37:58.189Z,21.90
2018-05-29T20:53:10.166Z,21.70
2018-05-29T20:58:14.777Z,21.60
2018-05-29T21:03:19.019Z,21.50
2018-05-29T21:08:23.251Z,21.40
2018-05-29T21:13:27.110Z,21.30
2018-05-29T21:18:30.965Z,21.20
2018-05-29T21:23:35.198Z,21.20
2018-05-29T21:28:38.698Z,21.20
2018-05-29T21:43:50.674Z,20.90
2018-05-29T21:48:54.232Z,20.80
2018-05-29T21:53:57.714Z,20.90
2018-05-29T21:59:01.520Z,21.00
2018-05-29T22:04:05.014Z,21.10
2018-05-29T22:09:08.520Z,21.10
2018-05-29T22:14:12.020Z,21.10
2018-05-29T22:19:15.111Z,21.10
2018-05-29T22:24:18.971Z,21.20
2018-05-29T22:29:22.063Z,21.20
2018-05-29T22:34:25.166Z,21.20
2018-05-29T22:39:29.035Z,21.10
2018-05-29T22:49:37.325Z,21.20
2018-05-29T22:54:41.181Z,21.20
2018-05-29T22:59:45.786Z,21.10
2018-05-29T23:04:49.275Z,21.10
2018-05-29T23:09:53.527Z,21.10
2018-05-29T23:14:57.390Z,21.10
2018-05-29T23:20:01.255Z,21.10
2018-05-29T23:25:05.120Z,21.10
2018-05-29T23:30:08.981Z,20.90
2018-05-29T23:35:12.072Z,21.00
2018-05-29T23:40:15.163Z,21.00
2018-05-29T23:45:18.259Z,20.90
2018-05-29T23:50:21.355Z,20.90
2018-05-29T23:55:24.451Z,20.70
